Time;durP1;ratioP1;P1;durP2;ratioP2;P2;SDS_P1;SDS_P2;PMS_P1;PMS_P2;Temp;Humidity;BMP_temperature;BMP_pressure;BME280_temperature;BME280_humidity;BME280_pressure;Samples;Min_cycle;Max_cycle;Signal;HPM_P1;HPM_P2
2023/06/13 00:02:01;;;;;;;;;;;;;;;21.66;35.77;101370.72;5013495;28;20326;-55
2023/06/13 00:04:30;;;;;;;;;;;;;;;21.56;36.12;101367.31;5010966;28;19920;-57
2023/06/13 00:06:57;;;;;;;;;;;;;;;21.51;35.77;101369.09;5014562;28;20008;-56
2023/06/13 00:09:23;;;;;;;;;;;;;;;21.46;35.81;101365.66;5012849;28;19918;-56
2023/06/13 00:11:49;;;;;;;;;;;;;;;21.45;36.05;101361.28;5011018;28;20020;-56
2023/06/13 00:14:16;;;;;;;;;;;;;;;21.39;36.16;101369.19;5012953;28;19913;-57
2023/06/13 00:16:43;;;;;;;;;;;;;;;21.36;36.32;101370.09;5014611;28;19917;-56
2023/06/13 00:19:09;;;;;;;;;;;;;;;21.31;36.45;101371.88;5012924;28;19917;-57
2023/06/13 00:21:35;;;;;;;;;;;;;;;21.28;36.52;101366.63;5013667;28;19924;-56
2023/06/13 00:24:01;;;;;;;;;;;;;;;21.23;36.72;101362.31;5018843;28;19917;-56
2023/06/13 00:26:26;;;;;;;;;;;;;;;21.22;36.75;101365.81;5018198;28;19925;-56
2023/06/13 00:28:52;;;;;;;;;;;;;;;21.13;37.33;101359.78;5023040;28;19930;-57
2023/06/13 00:31:17;;;;;;;;;;;;;;;21.19;37.20;101360.63;5026875;28;19920;-56
2023/06/13 00:33:43;;;;;;;;;;;;;;;21.07;37.30;101366.81;5025780;28;20063;-56
2023/06/13 00:36:09;;;;;;;;;;;;;;;21.03;37.47;101363.34;5025098;28;19965;-57
2023/06/13 00:38:34;;;;;;;;;;;;;;;20.99;37.10;101364.25;5025778;28;19913;-61
2023/06/13 00:41:00;;;;;;;;;;;;;;;20.93;37.09;101366.91;5024113;28;19917;-55
2023/06/13 00:43:27;;;;;;;;;;;;;;;20.91;37.83;101362.56;5015740;28;20016;-56
2023/06/13 00:45:53;;;;;;;;;;;;;;;20.88;37.41;101361.72;5012598;28;19925;-55
2023/06/13 00:48:19;;;;;;;;;;;;;;;20.85;37.74;101366.06;5012583;28;19921;-56
2023/06/13 00:50:45;;;;;;;;;;;;;;;20.76;38.25;101363.53;5011536;28;19921;-56
2023/06/13 00:53:16;;;;;;;;;;;;;;;20.72;38.18;101365.28;5012919;28;19925;-56
2023/06/13 00:55:42;;;;;;;;;;;;;;;20.68;38.06;101366.16;5022326;28;19921;-56
2023/06/13 00:58:07;;;;;;;;;;;;;;;20.67;38.14;101368.81;5011404;28;20405;-57
2023/06/13 01:00:33;;;;;;;;;;;;;;;20.62;38.52;101364.47;5020690;28;19952;-56
2023/06/13 01:02:59;;;;;;;;;;;;;;;20.55;38.64;101356.66;5015176;28;19972;-56
2023/06/13 01:05:28;;;;;;;;;;;;;;;20.51;38.92;101353.22;5016849;28;20392;-56
2023/06/13 01:07:57;;;;;;;;;;;;;;;20.48;38.66;101360.19;5015715;28;19924;-56
2023/06/13 01:10:24;;;;;;;;;;;;;;;20.52;39.03;101354.09;5018354;28;19914;-56
2023/06/13 01:12:54;;;;;;;;;;;;;;;20.45;38.67;101352.34;5014913;28;19925;-56
2023/06/13 01:15:21;;;;;;;;;;;;;;;20.41;38.75;101348.00;5015084;28;19917;-56
2023/06/13 01:17:57;;;;;;;;;;;;;;;20.40;39.06;101341.91;5015387;28;19917;-56
2023/06/13 01:20:22;;;;;;;;;;;;;;;20.38;38.79;101342.78;5018396;28;19956;-56
2023/06/13 01:22:52;;;;;;;;;;;;;;;20.38;38.94;101354.09;5017201;28;19956;-55
2023/06/13 01:25:37;;;;;;;;;;;;;;;20.36;39.25;101351.50;5019278;28;19959;-57
2023/06/13 01:28:02;;;;;;;;;;;;;;;20.37;38.76;101357.59;5016790;28;20885;-56
2023/06/13 01:30:28;;;;;;;;;;;;;;;20.32;38.94;101343.69;5016105;28;20020;-57
2023/06/13 01:32:54;;;;;;;;;;;;;;;20.31;39.20;101355.00;5015312;28;20434;-57
2023/06/13 01:35:21;;;;;;;;;;;;;;;20.27;39.46;101356.78;5013984;28;19924;-56
2023/06/13 01:37:47;;;;;;;;;;;;;;;20.25;39.41;101352.41;5011719;28;19920;-56
2023/06/13 01:40:13;;;;;;;;;;;;;;;20.21;39.90;101362.03;5012616;28;19917;-57
2023/06/13 01:42:39;;;;;;;;;;;;;;;20.17;39.70;101355.06;5010180;28;20372;-56
2023/06/13 01:45:04;;;;;;;;;;;;;;;20.13;39.22;101353.34;5018392;28;19917;-56
2023/06/13 01:47:29;;;;;;;;;;;;;;;20.13;39.69;101355.94;5019110;28;20376;-56
2023/06/13 01:50:00;;;;;;;;;;;;;;;20.06;40.08;101356.84;5012837;28;19940;-56
2023/06/13 01:52:44;;;;;;;;;;;;;;;20.04;39.83;101359.47;5011213;28;20360;-57
2023/06/13 01:55:13;;;;;;;;;;;;;;;19.94;40.37;101347.31;5011497;28;20284;-56
2023/06/13 01:57:40;;;;;;;;;;;;;;;19.91;40.72;101347.31;5010609;28;19972;-56
2023/06/13 02:00:06;;;;;;;;;;;;;;;19.87;40.33;101345.59;5020462;28;19978;-56
2023/06/13 02:02:32;;;;;;;;;;;;;;;19.81;40.69;101345.59;5022904;28;19964;-57
2023/06/13 02:04:57;;;;;;;;;;;;;;;19.73;41.09;101340.41;5028614;28;19921;-57
2023/06/13 02:07:24;;;;;;;;;;;;;;;19.66;41.07;101337.81;5023057;28;20391;-45
2023/06/13 02:09:50;;;;;;;;;;;;;;;19.58;41.88;101350.84;5018202;28;20015;-44
2023/06/13 02:12:15;;;;;;;;;;;;;;;19.48;41.64;101346.50;5020704;28;19996;-43
2023/06/13 02:14:42;;;;;;;;;;;;;;;19.43;41.51;101350.84;5019258;28;19933;-44
2023/06/13 02:17:08;;;;;;;;;;;;;;;19.38;42.33;101349.97;5016374;28;19945;-44
2023/06/13 02:19:33;;;;;;;;;;;;;;;19.31;42.15;101346.50;5015794;28;19967;-47
2023/06/13 02:21:59;;;;;;;;;;;;;;;19.28;41.99;101343.88;5013208;28;19965;-46
2023/06/13 02:24:25;;;;;;;;;;;;;;;19.25;42.29;101349.13;5019433;28;19967;-45
2023/06/13 02:26:50;;;;;;;;;;;;;;;19.20;42.40;101345.63;5017763;28;19917;-44
2023/06/13 02:29:16;;;;;;;;;;;;;;;19.17;41.85;101349.13;5016139;28;20388;-47
2023/06/13 02:31:41;;;;;;;;;;;;;;;19.14;42.44;101350.84;5015449;28;21242;-45
2023/06/13 02:34:06;;;;;;;;;;;;;;;19.12;41.83;101347.38;5013284;28;19921;-44
2023/06/13 02:36:32;;;;;;;;;;;;;;;19.12;41.76;101337.81;5012238;28;21453;-46
2023/06/13 02:38:57;;;;;;;;;;;;;;;19.10;42.95;101344.75;5018245;28;19921;-45
2023/06/13 02:41:22;;;;;;;;;;;;;;;19.06;42.87;101356.06;5020307;28;19918;-45
2023/06/13 02:43:47;;;;;;;;;;;;;;;19.01;42.95;101349.97;5021035;28;19988;-45
2023/06/13 02:46:13;;;;;;;;;;;;;;;19.00;42.64;101358.66;5016277;28;19964;-47
2023/06/13 02:48:38;;;;;;;;;;;;;;;18.96;43.42;101356.91;5018818;28;19963;-45
2023/06/13 02:51:07;;;;;;;;;;;;;;;18.94;43.31;101356.91;5015497;28;19992;-44
2023/06/13 02:53:32;;;;;;;;;;;;;;;18.91;42.79;101353.41;5016255;28;19988;-45
2023/06/13 02:55:57;;;;;;;;;;;;;;;18.85;43.43;101354.28;5027233;28;20324;-46
2023/06/13 02:58:23;;;;;;;;;;;;;;;18.79;43.83;101353.41;5016324;28;19929;-46
2023/06/13 03:00:48;;;;;;;;;;;;;;;18.73;43.98;101351.66;5017247;28;19964;-48
2023/06/13 03:03:16;;;;;;;;;;;;;;;18.69;44.57;101356.00;5016750;28;19921;-45
2023/06/13 03:05:42;;;;;;;;;;;;;;;18.62;44.10;101346.38;5016967;28;20019;-45
2023/06/13 03:08:07;;;;;;;;;;;;;;;18.59;44.30;101351.59;5020031;28;20000;-46
2023/06/13 03:10:33;;;;;;;;;;;;;;;18.53;43.76;101353.31;5013187;28;19921;-46
2023/06/13 03:12:58;;;;;;;;;;;;;;;18.50;44.10;101346.34;5025686;28;19921;-45
2023/06/13 03:15:23;;;;;;;;;;;;;;;18.45;44.70;101348.09;5025731;28;19918;-45
2023/06/13 03:17:48;;;;;;;;;;;;;;;18.40;45.30;101357.59;5019006;28;19936;-46
2023/06/13 03:20:16;;;;;;;;;;;;;;;18.36;45.39;101350.63;5019385;28;20021;-45
2023/06/13 03:22:41;;;;;;;;;;;;;;;18.32;45.04;101357.59;5016414;28;19918;-46
2023/06/13 03:25:06;;;;;;;;;;;;;;;18.29;45.48;101354.09;5020888;28;20004;-45
2023/06/13 03:27:32;;;;;;;;;;;;;;;18.29;44.99;101360.16;5016218;28;19925;-44
2023/06/13 03:29:57;;;;;;;;;;;;;;;18.23;44.98;101347.13;5018070;28;20383;-47
2023/06/13 03:32:22;;;;;;;;;;;;;;;18.23;44.89;101349.72;5013528;28;19918;-44
2023/06/13 03:34:47;;;;;;;;;;;;;;;18.27;45.23;101343.66;5012957;28;19913;-48
2023/06/13 03:37:14;;;;;;;;;;;;;;;18.22;45.45;101342.78;5010705;28;19925;-48
2023/06/13 03:39:39;;;;;;;;;;;;;;;18.24;45.20;101338.44;5011661;28;20291;-45
2023/06/13 03:42:05;;;;;;;;;;;;;;;18.21;45.20;101341.91;5014693;28;19913;-47
2023/06/13 03:44:30;;;;;;;;;;;;;;;18.21;45.40;101334.09;5017628;28;19917;-45
2023/06/13 03:46:56;;;;;;;;;;;;;;;18.21;45.72;101343.66;5019974;28;20004;-47
2023/06/13 03:49:21;;;;;;;;;;;;;;;18.20;44.33;101337.56;5016484;28;19913;-46
2023/06/13 03:51:47;;;;;;;;;;;;;;;18.19;45.79;101341.00;5016310;28;20373;-47
2023/06/13 03:54:12;;;;;;;;;;;;;;;18.20;45.66;101340.19;5020055;28;19939;-45
2023/06/13 03:56:37;;;;;;;;;;;;;;;18.18;45.84;101341.00;5013906;28;19972;-46
2023/06/13 03:59:02;;;;;;;;;;;;;;;18.18;45.80;101349.69;5014190;28;19929;-47
2023/06/13 04:01:28;;;;;;;;;;;;;;;18.16;45.93;101341.00;5011525;28;20373;-48
2023/06/13 04:03:53;;;;;;;;;;;;;;;18.16;46.09;101345.34;5011684;28;19926;-48
2023/06/13 04:06:19;;;;;;;;;;;;;;;18.16;45.85;101347.97;5017789;28;19924;-44
2023/06/13 04:08:44;;;;;;;;;;;;;;;18.16;46.58;101348.81;5018831;28;19913;-46
2023/06/13 04:11:09;;;;;;;;;;;;;;;18.20;45.70;101352.28;5020340;28;19921;-46
2023/06/13 04:13:35;;;;;;;;;;;;;;;18.17;45.34;101341.88;5016022;28;19917;-46
2023/06/13 04:16:00;;;;;;;;;;;;;;;18.17;45.94;101352.28;5017758;28;19928;-49
2023/06/13 04:18:26;;;;;;;;;;;;;;;18.18;46.17;101354.03;5023021;28;19966;-47
2023/06/13 04:20:55;;;;;;;;;;;;;;;18.30;46.69;101351.47;5015615;28;20383;-48
2023/06/13 04:23:21;;;;;;;;;;;;;;;18.74;45.82;101362.06;5015406;28;19923;-46
2023/06/13 04:25:47;;;;;;;;;;;;;;;19.29;44.75;101369.09;5020552;28;20295;-45
2023/06/13 04:28:15;;;;;;;;;;;;;;;19.78;43.65;101351.72;5017125;28;20015;-48
2023/06/13 04:30:40;;;;;;;;;;;;;;;20.34;43.31;101357.63;5012277;28;19921;-47
2023/06/13 04:33:14;;;;;;;;;;;;;;;20.75;41.86;101359.16;5013502;28;19917;-45
2023/06/13 04:35:44;;;;;;;;;;;;;;;21.05;41.74;101358.09;5010833;28;20372;-48
2023/06/13 04:38:10;;;;;;;;;;;;;;;21.39;41.27;101354.38;5012223;28;19928;-48
2023/06/13 04:40:37;;;;;;;;;;;;;;;21.72;40.57;101361.91;5010424;28;19925;-47
2023/06/13 04:43:04;;;;;;;;;;;;;;;21.97;39.91;101359.94;5010534;28;20008;-48
2023/06/13 04:45:30;;;;;;;;;;;;;;;22.13;40.03;101361.50;5022506;28;19913;-49
2023/06/13 04:47:57;;;;;;;;;;;;;;;22.35;39.69;101365.59;5015200;28;19992;-45
2023/06/13 04:50:24;;;;;;;;;;;;;;;22.53;39.49;101363.63;5020552;28;19917;-46
2023/06/13 04:52:53;;;;;;;;;;;;;;;22.57;39.36;101365.31;5014565;28;19917;-47
2023/06/13 04:55:18;;;;;;;;;;;;;;;22.56;39.33;101371.44;5018836;28;19917;-48
2023/06/13 04:57:43;;;;;;;;;;;;;;;22.67;39.09;101369.53;5014143;28;19975;-46
2023/06/13 05:00:09;;;;;;;;;;;;;;;22.85;38.47;101376.28;5015937;28;19967;-47
2023/06/13 05:02:34;;;;;;;;;;;;;;;22.78;38.89;101374.66;5012672;28;19922;-48
2023/06/13 05:05:00;;;;;;;;;;;;;;;22.71;38.87;101390.47;5011254;28;20388;-45
2023/06/13 05:07:28;;;;;;;;;;;;;;;22.51;39.62;101381.09;5012896;28;19979;-48
2023/06/13 05:09:53;;;;;;;;;;;;;;;22.38;39.70;101380.41;5021276;28;20253;-47
2023/06/13 05:12:19;;;;;;;;;;;;;;;22.55;40.23;101381.06;5019422;28;20013;-46
2023/06/13 05:14:45;;;;;;;;;;;;;;;22.61;39.69;101380.13;5017043;28;19917;-47
2023/06/13 05:17:12;;;;;;;;;;;;;;;22.72;39.41;101388.69;5010960;28;20343;-46
2023/06/13 05:19:37;;;;;;;;;;;;;;;22.85;39.60;101387.63;5010012;28;19914;-45
2023/06/13 05:22:05;;;;;;;;;;;;;;;22.99;38.81;101390.06;5016091;28;19924;-47
2023/06/13 05:24:31;;;;;;;;;;;;;;;22.97;39.34;101389.25;5021301;28;19917;-49
2023/06/13 05:26:56;;;;;;;;;;;;;;;22.94;39.34;101384.06;5018907;28;19928;-46
2023/06/13 05:29:21;;;;;;;;;;;;;;;22.73;39.52;101380.81;5015643;28;20280;-46
2023/06/13 05:31:47;;;;;;;;;;;;;;;22.88;39.40;101386.78;5014660;28;19918;-49
2023/06/13 05:34:12;;;;;;;;;;;;;;;23.10;38.61;101393.41;5015801;28;19917;-44
2023/06/13 05:36:37;;;;;;;;;;;;;;;23.36;38.70;101390.41;5019466;28;19933;-45
2023/06/13 05:39:02;;;;;;;;;;;;;;;23.62;38.32;101384.72;5018189;28;20680;-48
2023/06/13 05:41:28;;;;;;;;;;;;;;;23.90;37.79;101387.69;5015970;28;19952;-49
2023/06/13 05:43:53;;;;;;;;;;;;;;;23.95;37.36;101391.09;5013676;28;19925;-47
2023/06/13 05:46:18;;;;;;;;;;;;;;;23.94;37.47;101384.13;5014352;28;19918;-47
2023/06/13 05:48:44;;;;;;;;;;;;;;;24.08;37.55;101382.09;5019300;28;19952;-46
2023/06/13 05:51:09;;;;;;;;;;;;;;;23.79;38.01;101397.56;5019486;28;19918;-49
2023/06/13 05:53:35;;;;;;;;;;;;;;;23.46;38.04;101389.31;5021199;28;19917;-47
2023/06/13 05:56:00;;;;;;;;;;;;;;;23.48;38.30;101382.31;5018477;28;19926;-45
2023/06/13 05:58:25;;;;;;;;;;;;;;;23.54;38.25;101387.47;5018915;28;19971;-47
2023/06/13 06:00:52;;;;;;;;;;;;;;;23.85;37.50;101389.56;5020151;28;19980;-48
2023/06/13 06:03:17;;;;;;;;;;;;;;;23.95;37.70;101388.47;5016204;28;20000;-49
2023/06/13 06:05:42;;;;;;;;;;;;;;;24.05;37.13;101383.94;5016807;28;20004;-47
2023/06/13 06:08:08;;;;;;;;;;;;;;;24.07;37.49;101390.88;5009422;28;19992;-49
2023/06/13 06:10:33;;;;;;;;;;;;;;;24.18;37.27;101388.03;5020776;28;20008;-48
2023/06/13 06:12:58;;;;;;;;;;;;;;;24.26;37.26;101395.75;5018937;28;20012;-47
2023/06/13 06:15:23;;;;;;;;;;;;;;;24.29;36.93;101395.72;5024021;28;19968;-49
2023/06/13 06:17:50;;;;;;;;;;;;;;;24.46;36.68;101396.28;5019183;28;20630;-46
2023/06/13 06:20:16;;;;;;;;;;;;;;;24.61;36.21;101393.28;5020727;28;20029;-46
2023/06/13 06:22:41;;;;;;;;;;;;;;;24.66;36.16;101394.97;5020363;28;19979;-46
2023/06/13 06:25:08;;;;;;;;;;;;;;;24.67;36.37;101387.03;5029220;28;19947;-46
2023/06/13 06:27:33;;;;;;;;;;;;;;;24.74;36.37;101393.03;5027594;28;20291;-47
2023/06/13 06:29:59;;;;;;;;;;;;;;;24.64;36.07;101389.75;5017421;28;19918;-46
2023/06/13 06:32:25;;;;;;;;;;;;;;;24.55;36.00;101384.69;5026804;28;19923;-45
2023/06/13 06:34:50;;;;;;;;;;;;;;;24.67;36.25;101378.28;5025188;28;19917;-48
2023/06/13 06:37:15;;;;;;;;;;;;;;;24.68;36.20;101387.91;5031790;28;19921;-46
2023/06/13 06:39:41;;;;;;;;;;;;;;;24.68;35.73;101374.75;5022373;28;19973;-46
2023/06/13 06:42:06;;;;;;;;;;;;;;;24.60;36.45;101383.69;5022875;28;19928;-45
2023/06/13 06:44:31;;;;;;;;;;;;;;;24.67;36.37;101386.19;5019258;28;19940;-49
2023/06/13 06:46:56;;;;;;;;;;;;;;;24.75;35.92;101386.88;5013996;28;19996;-45
2023/06/13 06:49:22;;;;;;;;;;;;;;;24.85;36.40;101386.63;5013816;28;19917;-45
2023/06/13 06:51:47;;;;;;;;;;;;;;;25.00;35.84;101387.19;5020499;28;19921;-48
2023/06/13 06:54:12;;;;;;;;;;;;;;;25.07;35.25;101392.31;5014559;28;19921;-49
2023/06/13 06:56:38;;;;;;;;;;;;;;;25.08;35.52;101387.91;5017273;28;19969;-46
2023/06/13 06:59:03;;;;;;;;;;;;;;;25.13;35.34;101389.53;5023014;28;19917;-47
2023/06/13 07:01:28;;;;;;;;;;;;;;;24.88;35.45;101396.22;5016256;28;20372;-48
2023/06/13 07:03:54;;;;;;;;;;;;;;;24.87;35.38;101386.59;5016158;28;19964;-46
2023/06/13 07:06:19;;;;;;;;;;;;;;;24.62;35.39;101388.91;5014667;28;19971;-48
2023/06/13 07:08:45;;;;;;;;;;;;;;;24.63;35.77;101395.88;5020967;28;19921;-46
2023/06/13 07:11:10;;;;;;;;;;;;;;;24.50;35.39;101390.03;5015755;28;19921;-49
2023/06/13 07:13:35;;;;;;;;;;;;;;;24.23;36.54;101394.06;5012632;28;19980;-48
2023/06/13 07:16:01;;;;;;;;;;;;;;;24.36;36.01;101392.09;5014775;28;19953;-47
2023/06/13 07:18:26;;;;;;;;;;;;;;;24.49;35.71;101395.31;5014965;28;20027;-50
2023/06/13 07:20:51;;;;;;;;;;;;;;;24.50;35.85;101394.44;5013733;28;20295;-50
2023/06/13 07:23:16;;;;;;;;;;;;;;;24.67;36.00;101394.94;5018672;28;19967;-46
2023/06/13 07:25:42;;;;;;;;;;;;;;;24.82;35.71;101401.63;5025575;28;19924;-49
2023/06/13 07:28:07;;;;;;;;;;;;;;;24.97;35.83;101395.16;5016834;28;20415;-50
2023/06/13 07:30:32;;;;;;;;;;;;;;;25.04;35.07;101402.84;5023066;28;19917;-47
2023/06/13 07:32:58;;;;;;;;;;;;;;;24.95;34.63;101397.81;5018265;28;19921;-50
2023/06/13 07:35:23;;;;;;;;;;;;;;;24.89;34.97;101403.22;5023505;28;19917;-48
2023/06/13 07:37:49;;;;;;;;;;;;;;;25.16;34.79;101401.72;5022080;28;19965;-47
2023/06/13 07:40:15;;;;;;;;;;;;;;;25.11;34.78;101396.56;5022199;28;19924;-48
2023/06/13 07:42:40;;;;;;;;;;;;;;;25.02;34.59;101399.41;5016931;28;19921;-48
2023/06/13 07:45:06;;;;;;;;;;;;;;;24.91;34.77;101398.78;5015713;28;19917;-47
2023/06/13 07:47:31;;;;;;;;;;;;;;;24.68;35.29;101394.03;5013038;28;19952;-47
2023/06/13 07:49:56;;;;;;;;;;;;;;;24.98;34.80;101399.50;5015204;28;20286;-51
2023/06/13 07:52:21;;;;;;;;;;;;;;;25.06;34.62;101393.22;5014296;28;19928;-46
2023/06/13 07:54:47;;;;;;;;;;;;;;;25.08;34.63;101394.03;5016238;28;19917;-51
2023/06/13 07:57:12;;;;;;;;;;;;;;;25.18;34.59;101396.41;5024437;28;19921;-48
2023/06/13 07:59:38;;;;;;;;;;;;;;;25.13;34.79;101400.06;5022033;28;20387;-51
2023/06/13 08:02:03;;;;;;;;;;;;;;;25.07;34.59;101392.31;5026045;28;19921;-48
2023/06/13 08:04:28;;;;;;;;;;;;;;;25.02;34.53;101386.25;5023782;28;20015;-49
2023/06/13 08:06:54;;;;;;;;;;;;;;;25.10;34.85;101388.72;5021299;28;19931;-49
2023/06/13 08:09:20;;;;;;;;;;;;;;;25.10;34.90;101396.63;5023525;28;20003;-49
2023/06/13 08:11:45;;;;;;;;;;;;;;;25.14;34.88;101393.88;5022051;28;20008;-51
2023/06/13 08:14:14;;;;;;;;;;;;;;;25.21;34.12;101393.72;5020870;28;20003;-51
2023/06/13 08:16:39;;;;;;;;;;;;;;;25.24;34.05;101399.81;5019049;28;19925;-50
2023/06/13 08:19:04;;;;;;;;;;;;;;;25.02;34.59;101394.13;5013611;28;20008;-50
2023/06/13 08:21:30;;;;;;;;;;;;;;;24.91;34.74;101392.66;5012872;28;20291;-56
2023/06/13 08:23:55;;;;;;;;;;;;;;;24.95;34.55;101389.94;5011766;28;19918;-56
2023/06/13 08:26:22;;;;;;;;;;;;;;;24.94;35.19;101387.34;5022790;28;19920;-57
2023/06/13 08:28:48;;;;;;;;;;;;;;;25.19;34.55;101395.56;5015381;28;19931;-56
2023/06/13 08:31:13;;;;;;;;;;;;;;;25.27;34.49;101393.59;5016422;28;19921;-57
2023/06/13 08:33:38;;;;;;;;;;;;;;;25.07;34.86;101391.44;5016852;28;19917;-57
2023/06/13 08:36:04;;;;;;;;;;;;;;;25.18;34.23;101399.94;5017535;28;20388;-56
2023/06/13 08:38:29;;;;;;;;;;;;;;;25.27;34.25;101380.44;5020918;28;19917;-56
2023/06/13 08:40:55;;;;;;;;;;;;;;;25.29;34.57;101387.38;5019228;28;19921;-56
2023/06/13 08:43:20;;;;;;;;;;;;;;;25.42;34.34;101385.28;5017183;28;19917;-57
2023/06/13 08:45:46;;;;;;;;;;;;;;;25.70;33.73;101395.13;5014344;28;19972;-56
2023/06/13 08:48:11;;;;;;;;;;;;;;;25.55;33.49;101380.59;5013229;28;19971;-56
2023/06/13 08:50:37;;;;;;;;;;;;;;;25.53;33.64;101388.53;5012671;28;19963;-56
2023/06/13 08:53:03;;;;;;;;;;;;;;;25.51;34.01;101373.69;5016913;28;19921;-58
2023/06/13 08:55:29;;;;;;;;;;;;;;;25.61;33.53;101389.22;5015620;28;19940;-56
2023/06/13 08:57:54;;;;;;;;;;;;;;;25.49;33.50;101381.63;5009472;28;20396;-55
2023/06/13 09:00:21;;;;;;;;;;;;;;;25.49;33.62;101371.09;5019602;28;19994;-57
2023/06/13 09:02:46;;;;;;;;;;;;;;;25.67;33.26;101365.34;5015806;28;19921;-56
2023/06/13 09:05:15;;;;;;;;;;;;;;;25.78;33.67;101370.31;5020318;28;19921;-56
2023/06/13 09:07:41;;;;;;;;;;;;;;;25.95;32.93;101369.88;5019112;28;19913;-57
2023/06/13 09:10:12;;;;;;;;;;;;;;;25.96;31.40;101368.97;5017382;28;19928;-56
2023/06/13 09:12:42;;;;;;;;;;;;;;;25.75;32.34;101365.16;5016837;28;20369;-57
2023/06/13 09:15:07;;;;;;;;;;;;;;;25.77;32.38;101362.47;5022448;28;19972;-57
2023/06/13 09:17:33;;;;;;;;;;;;;;;25.75;32.09;101357.25;5022215;28;19925;-57
2023/06/13 09:19:59;;;;;;;;;;;;;;;25.75;32.53;101365.16;5021500;28;20398;-56
2023/06/13 09:22:26;;;;;;;;;;;;;;;25.77;32.43;101362.47;5017362;28;19928;-48
2023/06/13 09:24:52;;;;;;;;;;;;;;;25.62;32.70;101356.69;5020676;28;19917;-49
2023/06/13 09:27:17;;;;;;;;;;;;;;;25.76;32.87;101364.25;5020380;28;19972;-45
2023/06/13 09:29:44;;;;;;;;;;;;;;;25.88;32.21;101365.69;5019449;28;21971;-49
2023/06/13 09:32:10;;;;;;;;;;;;;;;25.89;32.86;101364.78;5014267;28;19921;-46
2023/06/13 09:34:37;;;;;;;;;;;;;;;26.02;31.95;101363.53;5013340;28;20551;-45
2023/06/13 09:37:02;;;;;;;;;;;;;;;26.14;32.60;101357.03;5019779;28;20457;-49
2023/06/13 09:39:31;;;;;;;;;;;;;;;26.26;31.88;101363.72;5020160;28;19960;-49
2023/06/13 09:41:57;;;;;;;;;;;;;;;25.98;31.85;101356.63;5023721;28;19917;-50
2023/06/13 09:44:25;;;;;;;;;;;;;;;26.14;32.32;101354.41;5017311;28;19917;-49
2023/06/13 09:46:51;;;;;;;;;;;;;;;26.17;31.99;101349.91;5020553;28;19996;-46
2023/06/13 09:49:17;;;;;;;;;;;;;;;26.35;32.12;101345.03;5015782;28;20001;-46
2023/06/13 09:51:43;;;;;;;;;;;;;;;26.56;31.31;101348.81;5017492;28;20009;-48
2023/06/13 09:54:08;;;;;;;;;;;;;;;26.67;31.39;101351.97;5015743;28;19996;-48
2023/06/13 09:56:33;;;;;;;;;;;;;;;26.60;31.27;101348.66;5014058;28;19921;-47
2023/06/13 09:58:59;;;;;;;;;;;;;;;26.64;30.34;101360.00;5017737;28;20345;-49
2023/06/13 10:01:24;;;;;;;;;;;;;;;26.58;29.49;101363.69;5014488;28;20295;-47
2023/06/13 10:03:49;;;;;;;;;;;;;;;26.48;29.64;101366.66;5016545;28;19932;-50
2023/06/13 10:06:15;;;;;;;;;;;;;;;26.38;30.18;101350.19;5013832;28;19917;-48
2023/06/13 10:08:40;;;;;;;;;;;;;;;26.46;29.62;101349.09;5014688;28;20031;-50
2023/06/13 10:11:07;;;;;;;;;;;;;;;26.60;29.82;101363.63;5023515;28;19921;-47
2023/06/13 10:13:35;;;;;;;;;;;;;;;26.66;29.95;101340.56;5019454;28;20264;-47
2023/06/13 10:16:03;;;;;;;;;;;;;;;26.51;30.69;101348.94;5026252;28;19921;-45
2023/06/13 10:18:31;;;;;;;;;;;;;;;26.65;30.46;101344.13;5024640;28;19924;-47
2023/06/13 10:20:58;;;;;;;;;;;;;;;27.05;29.24;101339.34;5019723;28;20001;-48
2023/06/13 10:23:26;;;;;;;;;;;;;;;27.04;29.14;101351.66;5023029;28;19924;-50
2023/06/13 10:25:54;;;;;;;;;;;;;;;26.93;29.23;101359.06;5018386;28;20377;-47
2023/06/13 10:28:39;;;;;;;;;;;;;;;26.98;28.29;101342.16;5015780;28;19922;-56
2023/06/13 10:31:20;;;;;;;;;;;;;;;26.97;28.74;101339.59;5013664;28;19913;-56
2023/06/13 10:33:45;;;;;;;;;;;;;;;27.18;28.24;101344.22;5012686;28;20281;-56
2023/06/13 10:36:11;;;;;;;;;;;;;;;27.07;27.92;101340.19;5014132;28;19928;-47
2023/06/13 10:38:45;;;;;;;;;;;;;;;27.24;27.27;101348.38;5012283;28;20006;-47
2023/06/13 10:41:29;;;;;;;;;;;;;;;27.46;26.83;101352.03;5016271;28;19917;-49
2023/06/13 10:44:00;;;;;;;;;;;;;;;27.36;27.11;101347.97;5014095;28;20291;-48
2023/06/13 10:46:25;;;;;;;;;;;;;;;27.41;26.76;101345.19;5015772;28;19921;-47
2023/06/13 10:48:52;;;;;;;;;;;;;;;27.35;26.79;101340.13;5013420;28;20352;-48
2023/06/13 10:51:27;;;;;;;;;;;;;;;27.40;26.75;101340.81;5016128;28;20284;-47
2023/06/13 10:54:01;;;;;;;;;;;;;;;27.47;27.43;101337.91;5018450;28;19917;-45
2023/06/13 10:56:31;;;;;;;;;;;;;;;27.58;26.70;101340.19;5016920;28;19932;-46
2023/06/13 10:59:03;;;;;;;;;;;;;;;27.62;26.82;101341.81;5018145;28;19914;-47
2023/06/13 11:01:29;;;;;;;;;;;;;;;27.55;26.67;101332.38;5012721;28;20384;-45
2023/06/13 11:04:04;;;;;;;;;;;;;;;27.50;27.34;101326.41;5012803;28;20027;-48
2023/06/13 11:06:29;;;;;;;;;;;;;;;27.57;26.94;101333.19;5013036;28;19918;-47
2023/06/13 11:09:15;;;;;;;;;;;;;;;27.37;26.84;101338.31;5021022;28;19928;-50
2023/06/13 11:11:50;;;;;;;;;;;;;;;27.23;27.25;101323.78;5018962;28;19928;-47
2023/06/13 11:14:16;;;;;;;;;;;;;;;27.26;27.35;101328.09;5023602;28;19936;-48
2023/06/13 11:16:43;;;;;;;;;;;;;;;27.23;28.09;101321.13;5018081;28;19944;-49
2023/06/13 11:19:14;;;;;;;;;;;;;;;27.48;27.22;101320.28;5030354;28;19913;-49
2023/06/13 11:21:43;;;;;;;;;;;;;;;27.59;27.32;101326.06;5016739;28;19959;-48
2023/06/13 11:24:10;;;;;;;;;;;;;;;27.62;26.34;101325.97;5023441;28;19932;-48
2023/06/13 11:26:36;;;;;;;;;;;;;;;27.63;26.50;101318.91;5022748;28;20012;-49
2023/06/13 11:29:03;;;;;;;;;;;;;;;27.68;26.80;101311.69;5015785;28;19968;-49
2023/06/13 11:31:28;;;;;;;;;;;;;;;27.77;27.39;101316.63;5016176;28;19917;-49
2023/06/13 11:33:56;;;;;;;;;;;;;;;27.91;27.21;101313.47;5014058;28;19921;-48
2023/06/13 11:36:24;;;;;;;;;;;;;;;27.93;27.30;101317.81;5015079;28;20292;-48
2023/06/13 11:39:04;;;;;;;;;;;;;;;27.96;27.23;101315.03;5013040;28;19959;-46
2023/06/13 11:41:30;;;;;;;;;;;;;;;27.98;26.85;101313.22;5011822;28;19918;-49
2023/06/13 11:43:55;;;;;;;;;;;;;;;27.81;27.16;101325.34;5017239;28;19928;-45
2023/06/13 11:46:21;;;;;;;;;;;;;;;27.75;27.01;101319.34;5016884;28;19917;-48
2023/06/13 11:48:46;;;;;;;;;;;;;;;27.89;26.96;101317.97;5021608;28;19917;-49
2023/06/13 11:51:17;;;;;;;;;;;;;;;28.01;26.57;101314.88;5088655;27;1967941;-50
2023/06/13 11:53:52;;;;;;;;;;;;;;;27.99;26.55;101320.22;5147985;27;20424;-49
2023/06/13 11:56:19;;;;;;;;;;;;;;;27.88;26.05;101326.81;5148515;27;20010;-49
2023/06/13 11:58:46;;;;;;;;;;;;;;;27.65;26.16;101309.97;5147697;27;19923;-47
2023/06/13 12:01:15;;;;;;;;;;;;;;;27.69;26.35;101316.94;5148510;27;20452;-45
2023/06/13 12:03:41;;;;;;;;;;;;;;;27.45;26.40;101309.84;5147719;27;20385;-48
2023/06/13 12:06:07;;;;;;;;;;;;;;;27.52;26.72;101303.41;5148787;27;19950;-46
2023/06/13 12:08:33;;;;;;;;;;;;;;;27.68;26.25;101315.19;5147514;27;20426;-45
2023/06/13 12:10:58;;;;;;;;;;;;;;;27.80;26.37;101316.53;5148389;27;20430;-47
2023/06/13 12:13:23;;;;;;;;;;;;;;;27.88;25.83;101309.19;5130119;27;19915;-48
2023/06/13 12:15:49;;;;;;;;;;;;;;;27.99;26.16;101303.50;5145184;27;20006;-49
2023/06/13 12:18:14;;;;;;;;;;;;;;;28.18;25.45;101299.25;5135138;27;19959;-47
2023/06/13 12:20:51;;;;;;;;;;;;;;;28.32;25.37;101304.03;5125331;28;19919;-48
2023/06/13 12:23:17;;;;;;;;;;;;;;;28.50;24.93;101302.44;5126908;27;19916;-56
2023/06/13 12:25:43;;;;;;;;;;;;;;;28.72;23.98;101302.47;5121930;27;19911;-57
2023/06/13 12:28:12;;;;;;;;;;;;;;;28.58;23.77;101305.66;5123365;27;19922;-56
2023/06/13 12:30:39;;;;;;;;;;;;;;;28.29;24.76;101299.69;5124912;27;20018;-57
2023/06/13 12:33:06;;;;;;;;;;;;;;;28.39;23.95;101313.44;5128146;27;20003;-56